Time;durP1;ratioP1;P1;durP2;ratioP2;P2;SDS_P1;SDS_P2;PMS_P1;PMS_P2;Temp;Humidity;BMP_temperature;BMP_pressure;BME280_temperature;BME280_humidity;BME280_pressure;Samples;Min_cycle;Max_cycle;Signal;HPM_P1;HPM_P2
2023/12/17 00:00:09;;;;;;;22.80;13.50;;;;;;;;;;5106575;28;20819;-78
2023/12/17 00:02:36;;;;;;;18.40;12.20;;;;;;;;;;5106479;28;21015;-78
2023/12/17 00:05:04;;;;;;;19.97;11.80;;;;;;;;;;5106558;28;20443;-78
2023/12/17 00:07:31;;;;;;;22.20;11.80;;;;;;;;;;5105784;28;20771;-78
2023/12/17 00:10:11;;;;;;;21.33;12.47;;;;;;;;;;5105921;28;20451;-79
2023/12/17 00:12:39;;;;;;;17.23;12.73;;;;;;;;;;5103104;28;20478;-78
2023/12/17 00:15:10;;;;;;;16.93;11.67;;;;;;;;;;5105034;28;20456;-78
2023/12/17 00:17:37;;;;;;;19.23;11.83;;;;;;;;;;5106084;28;20449;-78
2023/12/17 00:20:08;;;;;;;18.73;10.53;;;;;;;;;;5108568;28;20537;-76
2023/12/17 00:22:36;;;;;;;17.37;9.90;;;;;;;;;;5107957;28;20835;-77
2023/12/17 00:25:06;;;;;;;14.77;9.90;;;;;;;;;;5108472;28;20461;-77
2023/12/17 00:27:34;;;;;;;16.53;10.90;;;;;;;;;;5109114;28;21006;-77
2023/12/17 00:30:08;;;;;;;16.17;11.60;;;;;;;;;;5092371;28;20706;-78
2023/12/17 00:32:36;;;;;;;16.03;11.90;;;;;;;;;;5108835;28;20524;-78
2023/12/17 00:35:04;;;;;;;13.27;9.77;;;;;;;;;;5108448;28;20914;-78
2023/12/17 00:37:31;;;;;;;14.20;9.20;;;;;;;;;;5107068;28;20498;-78
2023/12/17 00:39:59;;;;;;;16.63;11.30;;;;;;;;;;5106385;28;20622;-79
2023/12/17 00:42:28;;;;;;;18.97;11.47;;;;;;;;;;5096608;28;20518;-78
2023/12/17 00:44:55;;;;;;;16.70;10.37;;;;;;;;;;5084425;28;20477;-78
2023/12/17 00:47:22;;;;;;;15.67;10.10;;;;;;;;;;5085616;28;20487;-78
2023/12/17 00:49:50;;;;;;;14.43;10.00;;;;;;;;;;5086296;28;20466;-79
2023/12/17 00:52:19;;;;;;;15.90;11.33;;;;;;;;;;5088564;28;20458;-79
2023/12/17 00:54:47;;;;;;;17.27;9.70;;;;;;;;;;5089307;28;20452;-79
2023/12/17 00:57:14;;;;;;;18.63;12.20;;;;;;;;;;5087838;28;20496;-79
2023/12/17 00:59:43;;;;;;;16.27;10.83;;;;;;;;;;5086758;28;20459;-80
2023/12/17 01:02:11;;;;;;;17.53;10.70;;;;;;;;;;5085953;28;20445;-78
2023/12/17 01:04:39;;;;;;;15.23;10.50;;;;;;;;;;5082897;28;20472;-78
2023/12/17 01:07:06;;;;;;;16.20;10.80;;;;;;;;;;5083086;28;20511;-78
2023/12/17 01:09:34;;;;;;;15.03;9.87;;;;;;;;;;5083616;28;20447;-78
2023/12/17 01:12:03;;;;;;;19.20;11.53;;;;;;;;;;5082895;28;20452;-78
2023/12/17 01:14:34;;;;;;;15.90;10.30;;;;;;;;;;5086206;28;20463;-77
2023/12/17 01:17:03;;;;;;;14.90;11.07;;;;;;;;;;5086100;28;20474;-78
2023/12/17 01:19:31;;;;;;;16.53;10.27;;;;;;;;;;5087232;28;20495;-78
2023/12/17 01:21:59;;;;;;;14.37;9.93;;;;;;;;;;5088330;28;20731;-78
2023/12/17 01:24:27;;;;;;;17.23;12.53;;;;;;;;;;5089925;28;20471;-78
2023/12/17 01:26:54;;;;;;;14.50;11.03;;;;;;;;;;5087695;28;20482;-78
2023/12/17 01:29:22;;;;;;;15.27;10.10;;;;;;;;;;5086763;28;20520;-77
2023/12/17 01:31:49;;;;;;;20.20;11.70;;;;;;;;;;5089562;28;20484;-78
2023/12/17 01:34:20;;;;;;;14.27;9.07;;;;;;;;;;5089815;28;20476;-78
2023/12/17 01:36:49;;;;;;;13.97;9.70;;;;;;;;;;5090681;28;20457;-78
2023/12/17 01:39:17;;;;;;;16.37;10.40;;;;;;;;;;5087065;28;20458;-77
2023/12/17 01:41:45;;;;;;;13.80;8.70;;;;;;;;;;5088567;28;20461;-79
2023/12/17 01:44:13;;;;;;;16.27;10.30;;;;;;;;;;5086422;28;20479;-79
2023/12/17 01:46:41;;;;;;;15.17;10.63;;;;;;;;;;5087108;28;20463;-79
2023/12/17 01:49:08;;;;;;;15.43;9.50;;;;;;;;;;5084830;28;20454;-79
2023/12/17 01:51:38;;;;;;;14.17;10.00;;;;;;;;;;5089117;28;20447;-78
2023/12/17 01:54:05;;;;;;;18.27;9.10;;;;;;;;;;5089267;28;20453;-78
2023/12/17 01:56:33;;;;;;;13.20;9.50;;;;;;;;;;5090886;28;20458;-79
2023/12/17 01:59:05;;;;;;;15.93;9.93;;;;;;;;;;5089221;28;20872;-78
2023/12/17 02:01:32;;;;;;;18.03;10.07;;;;;;;;;;5088934;28;20485;-78
2023/12/17 02:04:00;;;;;;;14.63;9.90;;;;;;;;;;5088558;28;20436;-79
2023/12/17 02:06:28;;;;;;;13.43;8.87;;;;;;;;;;5089403;28;20480;-78
2023/12/17 02:08:57;;;;;;;16.57;9.70;;;;;;;;;;5086336;28;20531;-78
2023/12/17 02:11:25;;;;;;;15.67;10.00;;;;;;;;;;5086269;28;20458;-78
2023/12/17 02:13:52;;;;;;;11.87;9.00;;;;;;;;;;5086617;28;20472;-78
2023/12/17 02:16:20;;;;;;;10.90;8.10;;;;;;;;;;5083530;28;20453;-76
2023/12/17 02:18:48;;;;;;;14.90;9.40;;;;;;;;;;5085922;28;20441;-77
2023/12/17 02:21:16;;;;;;;11.80;9.20;;;;;;;;;;5086807;28;20891;-78
2023/12/17 02:23:45;;;;;;;16.63;9.87;;;;;;;;;;5085309;28;20814;-78
2023/12/17 02:26:12;;;;;;;13.00;7.87;;;;;;;;;;5087258;28;20459;-78
2023/12/17 02:28:40;;;;;;;13.90;9.60;;;;;;;;;;5087713;28;20490;-78
2023/12/17 02:31:08;;;;;;;10.43;7.60;;;;;;;;;;5088081;28;20493;-79
2023/12/17 02:33:36;;;;;;;12.23;8.10;;;;;;;;;;5090497;28;20488;-80
2023/12/17 02:36:11;;;;;;;12.20;8.97;;;;;;;;;;5090383;28;20440;-80
2023/12/17 02:38:39;;;;;;;13.77;8.50;;;;;;;;;;5091177;28;20457;-78
2023/12/17 02:41:08;;;;;;;11.60;8.93;;;;;;;;;;5090345;28;20441;-78
2023/12/17 02:43:39;;;;;;;14.73;9.63;;;;;;;;;;5092771;28;20500;-78
2023/12/17 02:46:07;;;;;;;13.87;9.27;;;;;;;;;;5089736;28;20499;-78
2023/12/17 02:48:35;;;;;;;13.13;8.67;;;;;;;;;;5092692;28;20953;-77
2023/12/17 02:51:03;;;;;;;13.20;8.60;;;;;;;;;;5087329;28;20458;-78
2023/12/17 02:53:31;;;;;;;11.53;8.43;;;;;;;;;;5088697;28;20453;-78
2023/12/17 02:56:01;;;;;;;13.90;7.20;;;;;;;;;;5089171;28;20463;-78
2023/12/17 02:58:31;;;;;;;11.43;8.43;;;;;;;;;;5090034;28;20482;-77
2023/12/17 03:00:59;;;;;;;9.50;7.27;;;;;;;;;;5091032;28;20715;-78
2023/12/17 03:03:26;;;;;;;12.17;8.27;;;;;;;;;;5089581;28;20731;-78
2023/12/17 03:05:55;;;;;;;10.20;7.33;;;;;;;;;;5088177;28;20481;-78
2023/12/17 03:08:22;;;;;;;15.30;9.63;;;;;;;;;;5089424;28;20493;-78
2023/12/17 03:11:06;;;;;;;10.70;7.37;;;;;;;;;;5101302;22;20472;-73
2023/12/17 03:13:40;;;;;;;10.57;7.40;;;;;;;;;;5103737;28;20452;-74
2023/12/17 03:16:09;;;;;;;14.30;8.97;;;;;;;;;;5100255;28;20730;-74
2023/12/17 03:18:40;;;;;;;11.03;7.30;;;;;;;;;;5100761;28;20533;-74
2023/12/17 03:21:09;;;;;;;8.70;6.83;;;;;;;;;;5100916;28;20454;-74
2023/12/17 03:23:39;;;;;;;9.60;7.23;;;;;;;;;;5102955;28;20470;-74
2023/12/17 03:26:09;;;;;;;9.63;7.63;;;;;;;;;;5102725;28;20458;-74
2023/12/17 03:28:49;;;;;;;12.97;8.03;;;;;;;;;;5084625;28;20491;-73
2023/12/17 03:31:21;;;;;;;8.47;5.30;;;;;;;;;;5082466;28;20455;-74
2023/12/17 03:33:49;;;;;;;16.57;8.40;;;;;;;;;;5114360;28;20516;-74
2023/12/17 03:36:18;;;;;;;10.37;6.80;;;;;;;;;;5122723;28;20538;-75
2023/12/17 03:38:48;;;;;;;14.63;8.10;;;;;;;;;;5121274;28;20774;-75
2023/12/17 03:41:22;;;;;;;10.20;7.47;;;;;;;;;;5131461;22;20565;-79
2023/12/17 03:43:51;;;;;;;10.70;6.93;;;;;;;;;;5127805;28;20455;-79
2023/12/17 03:46:19;;;;;;;11.20;6.60;;;;;;;;;;5127888;28;20446;-79
2023/12/17 03:48:46;;;;;;;13.90;7.00;;;;;;;;;;5129252;27;20486;-78
2023/12/17 03:51:14;;;;;;;9.13;6.60;;;;;;;;;;5128553;28;20454;-78
2023/12/17 03:53:41;;;;;;;10.47;7.10;;;;;;;;;;5127634;28;20499;-78
2023/12/17 03:56:10;;;;;;;8.97;5.77;;;;;;;;;;5132337;28;20492;-77
2023/12/17 03:58:39;;;;;;;9.20;6.43;;;;;;;;;;5129556;28;20456;-78
2023/12/17 04:01:09;;;;;;;11.63;6.73;;;;;;;;;;5127099;28;20469;-78
2023/12/17 04:03:36;;;;;;;8.40;6.57;;;;;;;;;;5128089;28;20436;-79
2023/12/17 04:06:04;;;;;;;8.60;6.80;;;;;;;;;;5128336;28;20456;-78
2023/12/17 04:08:32;;;;;;;10.43;6.87;;;;;;;;;;5129477;28;20555;-79
2023/12/17 04:10:59;;;;;;;8.63;5.30;;;;;;;;;;5130823;28;20454;-79
2023/12/17 04:13:26;;;;;;;10.17;7.30;;;;;;;;;;5128656;28;20860;-78
2023/12/17 04:15:54;;;;;;;10.07;7.87;;;;;;;;;;5127855;28;20444;-79
2023/12/17 04:18:23;;;;;;;9.90;7.27;;;;;;;;;;5129450;28;20446;-78
2023/12/17 04:20:50;;;;;;;8.97;7.30;;;;;;;;;;5128138;28;20450;-79
2023/12/17 04:23:18;;;;;;;11.07;6.27;;;;;;;;;;5132138;28;20788;-78
2023/12/17 04:25:45;;;;;;;9.70;7.67;;;;;;;;;;5127185;28;20468;-77
2023/12/17 04:28:13;;;;;;;9.80;6.27;;;;;;;;;;5122928;28;20492;-78
2023/12/17 04:30:41;;;;;;;9.47;5.87;;;;;;;;;;5130109;28;20483;-78
2023/12/17 04:33:08;;;;;;;8.83;6.00;;;;;;;;;;5127341;28;20522;-78
2023/12/17 04:35:37;;;;;;;8.90;6.03;;;;;;;;;;5130074;28;20988;-78
2023/12/17 04:38:05;;;;;;;7.97;4.80;;;;;;;;;;5128553;28;20536;-79
2023/12/17 04:40:32;;;;;;;9.50;6.30;;;;;;;;;;5129108;28;20461;-78
2023/12/17 04:42:59;;;;;;;9.87;6.53;;;;;;;;;;5110457;28;20474;-78
2023/12/17 04:45:27;;;;;;;7.90;6.53;;;;;;;;;;5111933;28;20477;-78
2023/12/17 04:47:55;;;;;;;8.60;5.47;;;;;;;;;;5110157;28;20459;-78
2023/12/17 04:50:23;;;;;;;7.53;6.33;;;;;;;;;;5111790;28;20520;-78
2023/12/17 04:52:52;;;;;;;8.03;6.50;;;;;;;;;;5108796;28;20463;-78
2023/12/17 04:55:19;;;;;;;9.03;6.27;;;;;;;;;;5109991;28;20550;-78
2023/12/17 04:57:46;;;;;;;6.80;5.30;;;;;;;;;;5111536;28;20444;-79
2023/12/17 05:00:40;;;;;;;9.33;6.37;;;;;;;;;;5110466;28;20448;-78
2023/12/17 05:03:08;;;;;;;13.20;5.80;;;;;;;;;;5104482;28;20774;-79
2023/12/17 05:05:35;;;;;;;9.90;6.17;;;;;;;;;;5106280;28;20451;-78
2023/12/17 05:08:04;;;;;;;9.03;5.57;;;;;;;;;;5103565;28;20488;-78
2023/12/17 05:10:31;;;;;;;17.77;6.17;;;;;;;;;;5108039;28;20444;-77
2023/12/17 05:12:59;;;;;;;9.43;5.97;;;;;;;;;;5108072;28;20478;-78
2023/12/17 05:15:26;;;;;;;7.50;5.50;;;;;;;;;;5103004;28;20441;-78
2023/12/17 05:17:53;;;;;;;8.03;6.07;;;;;;;;;;5089846;28;20471;-79
2023/12/17 05:20:21;;;;;;;9.63;5.87;;;;;;;;;;5090600;28;20453;-78
2023/12/17 05:22:48;;;;;;;6.80;5.27;;;;;;;;;;5090359;28;20528;-79
2023/12/17 05:25:17;;;;;;;8.90;6.40;;;;;;;;;;5089971;28;20481;-78
2023/12/17 05:27:45;;;;;;;8.20;6.37;;;;;;;;;;5090482;28;20445;-78
2023/12/17 05:30:16;;;;;;;8.40;6.37;;;;;;;;;;5087752;28;20501;-79
2023/12/17 05:32:43;;;;;;;10.03;4.60;;;;;;;;;;5088065;28;20479;-78
2023/12/17 05:35:11;;;;;;;6.70;5.30;;;;;;;;;;5090464;28;20544;-78
2023/12/17 05:37:38;;;;;;;8.53;5.70;;;;;;;;;;5089701;28;20502;-77
2023/12/17 05:40:08;;;;;;;9.60;6.10;;;;;;;;;;5088849;28;20455;-78
2023/12/17 05:42:37;;;;;;;8.60;6.30;;;;;;;;;;5086878;28;20515;-78
2023/12/17 05:45:06;;;;;;;7.70;5.83;;;;;;;;;;5086406;28;20460;-79
2023/12/17 05:47:34;;;;;;;9.00;6.10;;;;;;;;;;5088934;28;20571;-78
2023/12/17 05:50:05;;;;;;;7.20;5.60;;;;;;;;;;5087072;28;20586;-78
2023/12/17 05:52:34;;;;;;;11.00;4.67;;;;;;;;;;5089064;28;20544;-78
2023/12/17 05:55:03;;;;;;;8.33;5.20;;;;;;;;;;5088078;28;20523;-78
2023/12/17 05:57:30;;;;;;;8.60;6.00;;;;;;;;;;5086808;28;20516;-78
2023/12/17 05:59:59;;;;;;;7.67;5.03;;;;;;;;;;5087023;28;20466;-78
2023/12/17 06:02:27;;;;;;;8.70;5.90;;;;;;;;;;5083687;28;20454;-78
2023/12/17 06:04:54;;;;;;;9.30;5.53;;;;;;;;;;5085314;28;20460;-77
2023/12/17 06:07:22;;;;;;;9.53;6.20;;;;;;;;;;5080911;28;20457;-80
2023/12/17 06:09:49;;;;;;;8.57;5.73;;;;;;;;;;5085209;28;20483;-79
2023/12/17 06:12:16;;;;;;;8.73;5.30;;;;;;;;;;5089735;28;20458;-79
2023/12/17 06:14:44;;;;;;;8.30;5.73;;;;;;;;;;5081651;28;20456;-78
2023/12/17 06:17:14;;;;;;;9.83;5.70;;;;;;;;;;5088838;28;20464;-78
2023/12/17 06:19:41;;;;;;;7.27;6.43;;;;;;;;;;5086256;28;20448;-78
2023/12/17 06:22:11;;;;;;;7.57;5.30;;;;;;;;;;5085779;28;20466;-79
2023/12/17 06:24:39;;;;;;;8.70;5.70;;;;;;;;;;5084665;28;20455;-79
2023/12/17 06:27:06;;;;;;;8.20;5.90;;;;;;;;;;5084369;28;20557;-79
2023/12/17 06:29:35;;;;;;;13.67;4.80;;;;;;;;;;5084170;28;20485;-79
2023/12/17 06:32:04;;;;;;;8.27;5.30;;;;;;;;;;5084223;28;20959;-78
2023/12/17 06:34:33;;;;;;;7.83;6.17;;;;;;;;;;5088402;28;20466;-78
2023/12/17 06:37:00;;;;;;;7.20;5.10;;;;;;;;;;5084474;28;20754;-79
2023/12/17 06:39:27;;;;;;;7.60;5.20;;;;;;;;;;5088877;28;20432;-79
2023/12/17 06:41:55;;;;;;;7.50;5.47;;;;;;;;;;5082352;28;20485;-79
2023/12/17 06:44:22;;;;;;;14.43;6.00;;;;;;;;;;5082868;28;20454;-78
2023/12/17 06:46:50;;;;;;;8.20;5.57;;;;;;;;;;5081468;28;20868;-79
2023/12/17 06:49:18;;;;;;;11.83;4.93;;;;;;;;;;5082740;28;20486;-79
2023/12/17 06:51:46;;;;;;;8.90;6.03;;;;;;;;;;5083215;28;20814;-78
2023/12/17 06:54:14;;;;;;;9.77;6.00;;;;;;;;;;5085148;28;20691;-78
2023/12/17 06:56:44;;;;;;;7.80;5.20;;;;;;;;;;5088286;28;20455;-78
2023/12/17 06:59:11;;;;;;;6.63;5.13;;;;;;;;;;5085239;28;20445;-78
2023/12/17 07:01:39;;;;;;;7.73;5.00;;;;;;;;;;5087824;28;20502;-78
2023/12/17 07:04:06;;;;;;;15.23;6.47;;;;;;;;;;5085060;28;20452;-78
2023/12/17 07:06:34;;;;;;;8.77;5.97;;;;;;;;;;5087229;28;20486;-78
2023/12/17 07:09:02;;;;;;;7.97;6.20;;;;;;;;;;5086400;28;20548;-79
2023/12/17 07:11:30;;;;;;;11.90;6.97;;;;;;;;;;5087374;28;20472;-79
2023/12/17 07:13:58;;;;;;;10.70;5.90;;;;;;;;;;5086926;28;20479;-78
2023/12/17 07:16:28;;;;;;;11.80;5.70;;;;;;;;;;5088225;28;20609;-77
2023/12/17 07:18:55;;;;;;;9.60;6.07;;;;;;;;;;5084502;28;20787;-79
2023/12/17 07:21:22;;;;;;;11.90;6.10;;;;;;;;;;5086081;28;20474;-79
2023/12/17 07:23:50;;;;;;;7.20;4.77;;;;;;;;;;5086187;28;20454;-78
2023/12/17 07:26:18;;;;;;;5.90;4.83;;;;;;;;;;5085655;28;20495;-79
2023/12/17 07:28:52;;;;;;;7.80;5.37;;;;;;;;;;5084564;28;20914;-78
2023/12/17 07:31:19;;;;;;;8.13;6.13;;;;;;;;;;5085831;28;20457;-78
2023/12/17 07:33:47;;;;;;;8.97;5.70;;;;;;;;;;5084108;28;20551;-80
2023/12/17 07:36:14;;;;;;;8.90;5.90;;;;;;;;;;5084796;28;20465;-78
2023/12/17 07:38:42;;;;;;;8.37;6.27;;;;;;;;;;5083736;28;20481;-77
2023/12/17 07:41:09;;;;;;;6.90;5.23;;;;;;;;;;5085434;28;20513;-78
2023/12/17 07:43:38;;;;;;;11.93;5.93;;;;;;;;;;5087749;28;20463;-78
2023/12/17 07:46:05;;;;;;;8.70;5.80;;;;;;;;;;5087271;28;20447;-77
2023/12/17 07:48:33;;;;;;;10.07;6.40;;;;;;;;;;5084897;28;20471;-80
2023/12/17 07:51:01;;;;;;;7.93;5.93;;;;;;;;;;5085863;28;20875;-80
2023/12/17 07:53:30;;;;;;;8.20;6.30;;;;;;;;;;5086289;28;20454;-78
2023/12/17 07:55:59;;;;;;;11.70;5.80;;;;;;;;;;5088778;28;20446;-78
2023/12/17 07:58:28;;;;;;;8.87;6.53;;;;;;;;;;5089055;28;20468;-78
2023/12/17 08:00:58;;;;;;;8.53;5.43;;;;;;;;;;5088745;28;20447;-79
2023/12/17 08:03:25;;;;;;;8.97;6.80;;;;;;;;;;5088399;28;20451;-79
2023/12/17 08:05:53;;;;;;;8.97;5.97;;;;;;;;;;5088586;28;20463;-79
2023/12/17 08:08:21;;;;;;;8.40;5.73;;;;;;;;;;5088157;28;20476;-81
2023/12/17 08:10:48;;;;;;;12.90;5.87;;;;;;;;;;5089102;28;20473;-78
2023/12/17 08:13:16;;;;;;;10.30;5.33;;;;;;;;;;5086676;28;20467;-78
2023/12/17 08:15:44;;;;;;;8.10;5.67;;;;;;;;;;5089980;28;20460;-79
2023/12/17 08:18:13;;;;;;;13.43;6.80;;;;;;;;;;5088956;28;20457;-77
2023/12/17 08:20:41;;;;;;;9.33;6.07;;;;;;;;;;5090174;28;20455;-78
2023/12/17 08:23:08;;;;;;;7.93;6.00;;;;;;;;;;5090782;28;20468;-78
2023/12/17 08:25:38;;;;;;;9.13;5.53;;;;;;;;;;5090312;28;20473;-78
2023/12/17 08:28:06;;;;;;;8.60;5.73;;;;;;;;;;5090322;28;20591;-77
2023/12/17 08:30:37;;;;;;;10.73;6.00;;;;;;;;;;5088973;28;20483;-77
2023/12/17 08:33:05;;;;;;;17.23;6.67;;;;;;;;;;5090551;28;20948;-78
2023/12/17 08:35:37;;;;;;;7.87;5.53;;;;;;;;;;5087928;28;20465;-80
2023/12/17 08:38:06;;;;;;;11.27;7.07;;;;;;;;;;5086645;28;20459;-77
2023/12/17 08:40:33;;;;;;;7.33;5.73;;;;;;;;;;5089582;28;20477;-78
2023/12/17 08:43:01;;;;;;;8.27;5.90;;;;;;;;;;5088739;28;20473;-79
2023/12/17 08:45:28;;;;;;;12.73;6.80;;;;;;;;;;5089520;28;20537;-78
2023/12/17 08:47:56;;;;;;;11.53;6.20;;;;;;;;;;5087786;28;20453;-78
2023/12/17 08:50:23;;;;;;;10.27;7.43;;;;;;;;;;5086673;28;20505;-80
2023/12/17 08:52:53;;;;;;;9.80;7.60;;;;;;;;;;5081682;28;20500;-79
2023/12/17 08:55:21;;;;;;;10.20;8.47;;;;;;;;;;5080008;28;20743;-78
2023/12/17 08:57:48;;;;;;;9.10;7.50;;;;;;;;;;5079974;28;20445;-78
2023/12/17 09:00:17;;;;;;;9.20;7.20;;;;;;;;;;5083956;28;20838;-79
2023/12/17 09:02:44;;;;;;;12.20;9.07;;;;;;;;;;5081458;28;20457;-78
2023/12/17 09:05:13;;;;;;;11.17;7.87;;;;;;;;;;5085888;28;20502;-78
2023/12/17 09:07:41;;;;;;;12.97;8.00;;;;;;;;;;5084045;28;20486;-78
2023/12/17 09:10:10;;;;;;;11.13;7.70;;;;;;;;;;5083248;28;20491;-78
2023/12/17 09:12:38;;;;;;;12.93;7.57;;;;;;;;;;5084021;28;20456;-78
2023/12/17 09:15:10;;;;;;;10.10;6.93;;;;;;;;;;5083853;28;20453;-77
2023/12/17 09:17:44;;;;;;;9.67;7.87;;;;;;;;;;5088122;28;20486;-78
2023/12/17 09:20:15;;;;;;;10.07;7.70;;;;;;;;;;5087964;28;20478;-78
2023/12/17 09:22:42;;;;;;;11.00;7.03;;;;;;;;;;5085744;28;20458;-77
2023/12/17 09:25:17;;;;;;;9.73;7.07;;;;;;;;;;5086021;28;20851;-79
2023/12/17 09:27:46;;;;;;;10.10;6.80;;;;;;;;;;5089045;28;20464;-78
2023/12/17 09:30:16;;;;;;;9.37;7.17;;;;;;;;;;5089299;28;20484;-77
2023/12/17 09:32:45;;;;;;;8.80;7.40;;;;;;;;;;5087282;28;20497;-78
2023/12/17 09:35:14;;;;;;;10.90;7.80;;;;;;;;;;5085297;28;20460;-78
2023/12/17 09:37:42;;;;;;;10.40;7.80;;;;;;;;;;5085280;28;20443;-78
2023/12/17 09:40:16;;;;;;;9.93;6.90;;;;;;;;;;5082179;28;20429;-80
2023/12/17 09:42:44;;;;;;;10.97;7.13;;;;;;;;;;5083056;28;20860;-80
2023/12/17 09:45:15;;;;;;;8.73;6.30;;;;;;;;;;5082702;28;20453;-79
2023/12/17 09:47:44;;;;;;;10.50;7.57;;;;;;;;;;5082564;28;20454;-79
2023/12/17 09:50:14;;;;;;;9.83;5.67;;;;;;;;;;5081622;28;20491;-78
2023/12/17 09:52:43;;;;;;;15.40;8.87;;;;;;;;;;5082712;28;20548;-79
2023/12/17 09:55:14;;;;;;;14.40;8.80;;;;;;;;;;5086226;28;20801;-77
2023/12/17 09:57:43;;;;;;;12.50;6.10;;;;;;;;;;5085840;28;20901;-77
2023/12/17 10:00:12;;;;;;;10.70;7.20;;;;;;;;;;5085211;28;20476;-77
2023/12/17 10:02:42;;;;;;;8.70;7.07;;;;;;;;;;5082043;28;20464;-77
2023/12/17 10:05:10;;;;;;;7.87;5.87;;;;;;;;;;5083757;28;20448;-78
2023/12/17 10:07:38;;;;;;;8.47;7.20;;;;;;;;;;5082142;28;20455;-78
2023/12/17 10:10:10;;;;;;;9.10;6.60;;;;;;;;;;5082580;28;20521;-78
2023/12/17 10:12:40;;;;;;;10.07;6.43;;;;;;;;;;5084321;28;20464;-78
2023/12/17 10:15:11;;;;;;;10.30;6.80;;;;;;;;;;5079430;28;20678;-77
2023/12/17 10:17:39;;;;;;;8.17;6.70;;;;;;;;;;5080980;28;20458;-77
2023/12/17 10:20:10;;;;;;;7.07;5.17;;;;;;;;;;5083466;28;20452;-77
2023/12/17 10:22:38;;;;;;;12.83;5.60;;;;;;;;;;5082146;28;20457;-77
2023/12/17 10:25:06;;;;;;;9.60;5.57;;;;;;;;;;5079955;28;20457;-77
2023/12/17 10:27:34;;;;;;;7.83;6.00;;;;;;;;;;5084273;28;20528;-77
2023/12/17 10:30:11;;;;;;;8.27;6.07;;;;;;;;;;5084713;28;20499;-78
2023/12/17 10:32:43;;;;;;;9.87;6.93;;;;;;;;;;5084478;28;20452;-78
2023/12/17 10:35:11;;;;;;;10.00;6.33;;;;;;;;;;5081328;28;20475;-78
2023/12/17 10:37:39;;;;;;;10.03;6.17;;;;;;;;;;5082986;28;20446;-78
2023/12/17 10:40:11;;;;;;;7.43;5.40;;;;;;;;;;5094158;28;20452;-78
2023/12/17 10:42:39;;;;;;;6.93;4.40;;;;;;;;;;5099819;28;20477;-78
2023/12/17 10:45:11;;;;;;;8.80;5.87;;;;;;;;;;5093294;28;20476;-78
2023/12/17 10:47:42;;;;;;;7.67;5.37;;;;;;;;;;5092377;28;20467;-78
2023/12/17 10:50:10;;;;;;;8.77;5.60;;;;;;;;;;5096120;28;20495;-78
2023/12/17 10:52:39;;;;;;;7.73;6.03;;;;;;;;;;5093046;28;21136;-79
2023/12/17 10:55:07;;;;;;;7.53;4.73;;;;;;;;;;5101233;28;20453;-78
2023/12/17 10:57:36;;;;;;;6.73;4.87;;;;;;;;;;5103285;28;20501;-78
2023/12/17 11:00:26;;;;;;;10.50;6.90;;;;;;;;;;5105437;28;20498;-78
2023/12/17 11:02:57;;;;;;;8.30;6.07;;;;;;;;;;5094625;28;20928;-78
2023/12/17 11:05:27;;;;;;;8.03;4.90;;;;;;;;;;5099599;28;20481;-78
2023/12/17 11:07:55;;;;;;;10.27;6.10;;;;;;;;;;5104603;28;20511;-78
2023/12/17 11:10:23;;;;;;;9.67;6.30;;;;;;;;;;5105764;28;20508;-78
2023/12/17 11:12:53;;;;;;;15.13;8.50;;;;;;;;;;5104391;28;20456;-78
2023/12/17 11:15:27;;;;;;;10.27;6.37;;;;;;;;;;5104305;28;20515;-79
2023/12/17 11:17:57;;;;;;;9.77;4.90;;;;;;;;;;5101474;28;20453;-77
2023/12/17 11:20:35;;;;;;;13.07;7.47;;;;;;;;;;5103768;28;20495;-77
2023/12/17 11:23:10;;;;;;;12.20;6.50;;;;;;;;;;5104259;28;20451;-78
2023/12/17 11:25:38;;;;;;;8.77;6.13;;;;;;;;;;5104574;28;20512;-78
2023/12/17 11:28:09;;;;;;;11.07;6.23;;;;;;;;;;5103543;28;20486;-78
2023/12/17 11:30:40;;;;;;;8.13;5.53;;;;;;;;;;5098739;28;20930;-78
2023/12/17 11:33:09;;;;;;;9.57;5.70;;;;;;;;;;5094296;28;20504;-78
2023/12/17 11:35:38;;;;;;;8.90;6.20;;;;;;;;;;5097921;28;20462;-78
2023/12/17 11:38:06;;;;;;;10.00;6.73;;;;;;;;;;5091522;28;21098;-78
2023/12/17 11:40:35;;;;;;;10.10;6.50;;;;;;;;;;5086057;28;20444;-77
2023/12/17 11:43:05;;;;;;;15.00;8.20;;;;;;;;;;5094881;28;20564;-80
2023/12/17 11:45:36;;;;;;;10.70;6.53;;;;;;;;;;5105967;28;20474;-78
2023/12/17 11:48:09;;;;;;;10.90;7.40;;;;;;;;;;5096392;28;20956;-79
2023/12/17 11:50:45;;;;;;;15.73;9.30;;;;;;;;;;5100673;28;20479;-79
2023/12/17 11:53:15;;;;;;;11.17;7.63;;;;;;;;;;5108622;28;20436;-78
2023/12/17 11:55:46;;;;;;;11.40;6.77;;;;;;;;;;5109091;28;20447;-78
2023/12/17 11:58:17;;;;;;;13.27;7.13;;;;;;;;;;5108312;28;20465;-79
2023/12/17 12:00:45;;;;;;;10.20;6.07;;;;;;;;;;5109487;28;20448;-78
2023/12/17 12:03:27;;;;;;;11.07;6.53;;;;;;;;;;5107581;28;20449;-78
2023/12/17 12:05:59;;;;;;;10.40;6.00;;;;;;;;;;5110647;28;20455;-78
2023/12/17 12:08:27;;;;;;;14.63;7.00;;;;;;;;;;5110366;28;20476;-78
2023/12/17 12:10:55;;;;;;;12.53;6.00;;;;;;;;;;5111379;28;20475;-79
2023/12/17 12:13:23;;;;;;;15.57;8.63;;;;;;;;;;5110794;28;20434;-78
2023/12/17 12:15:51;;;;;;;15.93;9.00;;;;;;;;;;5108929;28;20467;-78
2023/12/17 12:18:23;;;;;;;10.17;6.10;;;;;;;;;;5108524;28;20521;-78
2023/12/17 12:20:51;;;;;;;13.57;8.90;;;;;;;;;;5110965;28;20467;-78
2023/12/17 12:23:19;;;;;;;11.97;7.40;;;;;;;;;;5092576;28;20482;-78
2023/12/17 12:25:47;;;;;;;13.23;7.63;;;;;;;;;;5079018;28;20465;-79
2023/12/17 12:28:20;;;;;;;9.60;6.10;;;;;;;;;;5102468;28;20510;-79
2023/12/17 12:30:47;;;;;;;8.80;5.40;;;;;;;;;;5093930;28;20481;-79
2023/12/17 12:33:15;;;;;;;10.77;6.03;;;;;;;;;;5100675;28;20484;-78
2023/12/17 12:35:51;;;;;;;12.23;7.13;;;;;;;;;;5100539;28;20450;-77
2023/12/17 12:38:20;;;;;;;9.97;6.40;;;;;;;;;;5110184;28;20447;-78
2023/12/17 12:41:01;;;;;;;12.67;7.03;;;;;;;;;;5110452;28;20680;-78
2023/12/17 12:43:29;;;;;;;12.17;7.43;;;;;;;;;;5111031;28;20886;-78
2023/12/17 12:45:57;;;;;;;10.47;6.73;;;;;;;;;;5111397;28;20456;-78
2023/12/17 12:48:26;;;;;;;13.57;7.80;;;;;;;;;;5109833;28;20455;-78
2023/12/17 12:50:56;;;;;;;11.13;6.17;;;;;;;;;;5111173;28;20490;-78
2023/12/17 12:53:23;;;;;;;12.03;8.20;;;;;;;;;;5108416;28;20483;-78
2023/12/17 12:55:51;;;;;;;14.17;10.70;;;;;;;;;;5093611;28;20540;-79
2023/12/17 12:58:19;;;;;;;9.57;6.80;;;;;;;;;;5113870;28;20460;-78
2023/12/17 13:00:48;;;;;;;10.47;7.37;;;;;;;;;;5110439;28;20521;-78
2023/12/17 13:03:29;;;;;;;11.60;8.80;;;;;;;;;;5109000;28;20675;-79
2023/12/17 13:05:58;;;;;;;14.13;8.20;;;;;;;;;;5109147;28;20552;-79
2023/12/17 13:08:26;;;;;;;10.63;8.37;;;;;;;;;;5109307;28;20451;-79
2023/12/17 13:10:55;;;;;;;9.20;6.93;;;;;;;;;;5110767;28;20490;-78
2023/12/17 13:13:25;;;;;;;9.73;5.00;;;;;;;;;;5108402;28;20462;-78
2023/12/17 13:15:53;;;;;;;11.10;7.27;;;;;;;;;;5108502;28;20454;-78
2023/12/17 13:18:22;;;;;;;12.30;8.73;;;;;;;;;;5107073;28;20748;-78
2023/12/17 13:20:51;;;;;;;14.27;9.20;;;;;;;;;;5110649;28;20469;-77
2023/12/17 13:23:25;;;;;;;12.30;8.50;;;;;;;;;;5108667;28;20431;-80
2023/12/17 13:26:13;;;;;;;11.23;8.43;;;;;;;;;;5091891;28;20459;-79
2023/12/17 13:28:41;;;;;;;12.00;8.30;;;;;;;;;;5106235;28;20580;-77
2023/12/17 13:31:09;;;;;;;13.73;9.10;;;;;;;;;;5104612;28;20486;-78
2023/12/17 13:33:37;;;;;;;10.97;6.73;;;;;;;;;;5106361;28;21089;-78
2023/12/17 13:36:07;;;;;;;11.57;7.40;;;;;;;;;;5101442;28;20458;-77
2023/12/17 13:38:37;;;;;;;13.50;7.93;;;;;;;;;;5101663;28;20472;-78
2023/12/17 13:41:06;;;;;;;12.37;8.97;;;;;;;;;;5098583;28;20542;-79
2023/12/17 13:43:33;;;;;;;13.83;8.80;;;;;;;;;;5102882;28;20569;-77
2023/12/17 13:46:01;;;;;;;13.23;8.47;;;;;;;;;;5101444;28;20479;-77
2023/12/17 13:48:29;;;;;;;13.43;7.90;;;;;;;;;;5103316;28;21032;-78
2023/12/17 13:50:57;;;;;;;13.20;8.13;;;;;;;;;;5104447;28;20479;-77
2023/12/17 13:53:27;;;;;;;10.40;6.10;;;;;;;;;;5093512;28;20463;-77
2023/12/17 13:55:59;;;;;;;12.10;7.60;;;;;;;;;;5098239;28;20498;-78
2023/12/17 13:58:27;;;;;;;11.87;8.30;;;;;;;;;;5109995;28;20463;-78
2023/12/17 14:00:55;;;;;;;14.40;7.97;;;;;;;;;;5108162;28;20461;-79
2023/12/17 14:03:26;;;;;;;10.77;6.03;;;;;;;;;;5103376;28;20517;-79
2023/12/17 14:05:54;;;;;;;12.60;7.67;;;;;;;;;;5095925;28;20461;-80
2023/12/17 14:08:23;;;;;;;11.90;7.07;;;;;;;;;;5095192;28;20519;-80
2023/12/17 14:10:52;;;;;;;9.93;7.47;;;;;;;;;;5094146;28;20477;-79
2023/12/17 14:13:24;;;;;;;10.10;7.13;;;;;;;;;;5083915;28;20445;-79
2023/12/17 14:15:52;;;;;;;12.90;7.50;;;;;;;;;;5084056;28;20479;-79
2023/12/17 14:18:22;;;;;;;12.03;7.13;;;;;;;;;;5086233;28;20457;-79
2023/12/17 14:20:51;;;;;;;9.87;6.67;;;;;;;;;;5090567;28;20451;-80
2023/12/17 14:23:19;;;;;;;13.23;8.57;;;;;;;;;;5086669;28;20448;-80
2023/12/17 14:25:49;;;;;;;12.03;9.10;;;;;;;;;;5084973;28;20506;-79
2023/12/17 14:28:17;;;;;;;10.00;6.27;;;;;;;;;;5100218;28;20464;-79
2023/12/17 14:31:12;;;;;;;12.17;8.27;;;;;;;;;;5097534;28;20457;-79
2023/12/17 14:33:41;;;;;;;9.37;5.67;;;;;;;;;;5103212;28;20528;-80
2023/12/17 14:36:09;;;;;;;10.90;7.50;;;;;;;;;;5106593;28;20492;-79
2023/12/17 14:38:40;;;;;;;9.87;7.43;;;;;;;;;;5106748;28;20566;-81
2023/12/17 14:41:10;;;;;;;13.60;7.53;;;;;;;;;;5099811;28;20468;-79
2023/12/17 14:43:38;;;;;;;8.37;5.97;;;;;;;;;;5084160;28;20493;-80